Airfield :
LOGIN :

Register | Disclaimer

   EN    FR    IT 

 










Legend :    VFR   Marginal VFR   IFR   Intensive IFR   Very Intensive IFR
Visi :
Ceiling :
>= 8 km
>= 3000ft
5 to 8 km
1000 to 3000 ft
1500m to 5 km
500 to 1000 ft
800 to 1500m
200 to 500 ft
< 800m
< 200 ft
Symbols :   Thunderstorms  Fog  Heavy snow  Heavy precipitations  Wind > 20 kt
SIGMETs :     Misc.  Thunderstorms  Icing  Turbulence  Mountain Waves  Volcanic Ashes







- Airport Elevation : 202 ft
- IATA code : LGW
- Download approach charts


EGKK - London Gatwick

CURRENT METAR :
  • 230250Z VRB01KT CAVOK 08/07 Q1018

EXPIRED METARs :
  • 230220Z 00000KT 8000 NSC 08/07 Q1018
  • 230150Z VRB02KT CAVOK 08/07 Q1018
  • 230120Z 20003KT CAVOK 09/07 Q1018
  • 230050Z 20004KT 8000 NSC 09/07 Q1018
  • 230020Z 23002KT 8000 NSC 08/07 Q1019

TAF TAF EGKK
Valid from the 23 at 00:00 until the 24 at 06:00 UTC


222302Z 2300/2406 21005KT 9999 FEW045
BECMG 2300/2303 8000
PROB30 2300/2305 4000 BR
BECMG 2305/2307 9999
PROB30 2400/2406 6000
No reported NOTAMs for that airfield.



MET'MAP, your aeronautical weather chart ! - Copyright ORBIFLY December 2007 - Disclaimer

ORBIFLY MET'MAP TEAM :

Programming & Development : Alexandra Zaïnal
Concept & Development : Baudouin d'Aumeries
Co-Development & Prog : Marc-Olivier Méhu
Technical & hardware support : Manuel Goepfert

Contact : metmap@orbifly.com




SOURCES & CREDITS :

   NOAA